createdAt,value
2019-03-21T00:00:25.899Z,8.75
2019-03-21T00:01:25.930Z,8.78
2019-03-21T00:02:25.862Z,8.79
2019-03-21T00:03:25.941Z,8.76
2019-03-21T00:04:25.920Z,8.71
2019-03-21T00:05:25.958Z,8.75
2019-03-21T00:06:25.820Z,8.78
2019-03-21T00:07:25.862Z,8.75
2019-03-21T00:08:25.817Z,8.75
2019-03-21T00:09:25.901Z,8.78
2019-03-21T00:10:25.806Z,8.70
2019-03-21T00:11:25.898Z,8.75
2019-03-21T00:12:25.763Z,8.75
2019-03-21T00:13:25.813Z,8.68
2019-03-21T00:14:25.773Z,8.76
2019-03-21T00:15:25.830Z,8.63
2019-03-21T00:16:25.728Z,8.60
2019-03-21T00:17:25.842Z,8.64
2019-03-21T00:18:25.737Z,8.68
2019-03-21T00:19:25.768Z,8.60
2019-03-21T00:20:25.667Z,8.67
2019-03-21T00:21:25.754Z,8.63
2019-03-21T00:22:25.667Z,8.67
2019-03-21T00:23:25.679Z,8.58
2019-03-21T00:24:25.618Z,8.58
2019-03-21T00:25:25.699Z,8.57
2019-03-21T00:26:25.612Z,8.49
2019-03-21T00:27:25.705Z,8.55
2019-03-21T00:28:25.577Z,8.49
2019-03-21T00:29:25.614Z,8.57
2019-03-21T00:30:25.584Z,8.50
2019-03-21T00:31:25.630Z,8.40
2019-03-21T00:32:25.545Z,8.37
2019-03-21T00:33:25.632Z,8.37
2019-03-21T00:34:25.518Z,8.36
2019-03-21T00:35:25.569Z,8.36
2019-03-21T00:36:25.499Z,8.27
2019-03-21T00:37:25.576Z,8.32
2019-03-21T00:38:25.476Z,8.25
2019-03-21T00:39:32.663Z,8.18
2019-03-21T00:40:26.468Z,8.10
2019-03-21T00:41:25.477Z,8.07
2019-03-21T00:42:25.423Z,7.96
2019-03-21T00:44:26.542Z,7.99
2019-03-21T00:45:25.535Z,7.89
2019-03-21T00:46:25.376Z,7.84
2019-03-21T00:47:25.433Z,7.77
2019-03-21T00:48:25.367Z,7.76
2019-03-21T00:49:25.452Z,7.69
2019-03-21T00:50:25.354Z,7.70
2019-03-21T00:51:25.373Z,7.57
2019-03-21T00:52:25.315Z,7.52
2019-03-21T00:54:26.418Z,7.37
2019-03-21T00:55:25.372Z,7.44
2019-03-21T00:56:25.295Z,7.41
2019-03-21T00:57:25.282Z,7.34
2019-03-21T00:58:25.251Z,7.32
2019-03-21T00:59:25.322Z,7.23
2019-03-21T01:00:25.226Z,7.23
2019-03-21T01:01:25.340Z,7.15
2019-03-21T01:02:25.201Z,7.09
2019-03-21T01:03:25.228Z,7.12
2019-03-21T01:04:25.200Z,7.08
2019-03-21T01:05:25.237Z,7.11
2019-03-21T01:06:25.211Z,7.11
2019-03-21T01:07:25.259Z,7.11
2019-03-21T01:08:25.150Z,7.00
2019-03-21T01:09:25.173Z,7.00
2019-03-21T01:10:25.107Z,6.97
2019-03-21T01:11:25.202Z,6.90
2019-03-21T01:12:25.086Z,6.87
2019-03-21T01:13:25.190Z,6.81
2019-03-21T01:14:29.676Z,6.76
2019-03-21T01:15:26.075Z,6.79
2019-03-21T01:16:25.092Z,6.76
2019-03-21T01:17:25.038Z,6.71
2019-03-21T01:18:25.053Z,6.69
2019-03-21T01:19:25.135Z,6.68
2019-03-21T01:20:25.054Z,6.58
2019-03-21T01:21:25.075Z,6.61
2019-03-21T01:22:25.005Z,6.61
2019-03-21T01:23:25.076Z,6.54
2019-03-21T01:24:24.960Z,6.50
2019-03-21T01:25:25.070Z,6.53
2019-03-21T01:26:24.929Z,6.42
2019-03-21T01:27:25.008Z,6.50
2019-03-21T01:28:24.922Z,6.39
2019-03-21T01:29:25.002Z,6.40
2019-03-21T01:30:24.897Z,6.36
2019-03-21T01:31:25.956Z,6.27
2019-03-21T01:32:24.866Z,6.32
2019-03-21T01:33:24.933Z,6.36
2019-03-21T01:34:24.851Z,6.32
2019-03-21T01:35:24.889Z,6.36
2019-03-21T01:36:24.853Z,6.27
2019-03-21T01:37:24.875Z,6.28
2019-03-21T01:38:24.806Z,6.32
2019-03-21T01:39:24.862Z,6.33
2019-03-21T01:40:24.791Z,6.28
2019-03-21T01:41:24.883Z,6.30
2019-03-21T01:42:24.792Z,6.32
2019-03-21T01:43:24.801Z,6.30
2019-03-21T01:44:24.752Z,6.25
2019-03-21T01:45:24.797Z,6.33
2019-03-21T01:46:24.721Z,6.33
2019-03-21T01:47:24.845Z,6.33
2019-03-21T01:48:24.693Z,6.38
2019-03-21T01:49:24.722Z,6.27
2019-03-21T01:50:24.677Z,6.35
2019-03-21T01:51:24.765Z,6.33
2019-03-21T01:52:24.675Z,6.45
2019-03-21T01:53:24.751Z,6.45
2019-03-21T01:54:24.624Z,6.45
2019-03-21T01:55:24.666Z,6.55
2019-03-21T01:56:24.606Z,6.55
2019-03-21T01:57:25.728Z,6.55
2019-03-21T01:58:24.581Z,6.60
2019-03-21T01:59:24.688Z,6.61
2019-03-21T02:00:24.577Z,6.60
2019-03-21T02:01:24.603Z,6.63
2019-03-21T02:02:24.571Z,6.63
2019-03-21T02:03:24.618Z,6.57
2019-03-21T02:04:24.511Z,6.63
2019-03-21T02:05:24.533Z,6.54
2019-03-21T02:06:24.494Z,6.63
2019-03-21T02:07:24.575Z,6.64
2019-03-21T02:08:24.511Z,6.60
2019-03-21T02:09:24.562Z,6.63
2019-03-21T02:10:24.490Z,6.61
2019-03-21T02:11:24.483Z,6.64
2019-03-21T02:12:24.520Z,6.68
2019-03-21T02:13:24.480Z,6.58
2019-03-21T02:14:24.415Z,6.65
2019-03-21T02:15:25.049Z,6.64
2019-03-21T02:16:24.419Z,6.61
2019-03-21T02:17:24.415Z,6.60
2019-03-21T02:18:24.404Z,6.61
2019-03-21T02:19:24.424Z,6.71
2019-03-21T02:20:24.354Z,6.73
2019-03-21T02:21:24.449Z,6.76
2019-03-21T02:22:24.317Z,6.69
2019-03-21T02:23:24.394Z,6.72
2019-03-21T02:24:24.338Z,6.93
2019-03-21T02:25:24.373Z,6.81
2019-03-21T02:26:24.290Z,6.78
2019-03-21T02:28:25.370Z,6.90
2019-03-21T02:29:25.340Z,6.93
2019-03-21T02:30:24.232Z,6.94
2019-03-21T02:31:24.297Z,6.99
2019-03-21T02:32:24.214Z,6.94
2019-03-21T02:33:24.380Z,7.01
2019-03-21T02:34:24.222Z,6.94
2019-03-21T02:35:24.233Z,7.00
2019-03-21T02:36:24.204Z,7.04
2019-03-21T02:37:24.249Z,7.01
2019-03-21T02:38:24.146Z,7.04
2019-03-21T02:39:24.194Z,7.12
2019-03-21T02:40:24.122Z,7.05
2019-03-21T02:41:25.695Z,7.11
2019-03-21T02:42:24.101Z,7.11
2019-03-21T02:43:24.187Z,7.11
2019-03-21T02:44:24.120Z,7.05
2019-03-21T02:45:24.095Z,7.04
2019-03-21T02:46:24.049Z,7.09
2019-03-21T02:47:24.104Z,7.08
2019-03-21T02:48:24.030Z,7.07
2019-03-21T02:49:24.104Z,7.14
2019-03-21T02:50:24.022Z,7.15
2019-03-21T02:51:24.022Z,7.08
2019-03-21T02:52:23.990Z,7.12
2019-03-21T02:53:24.048Z,7.07
2019-03-21T02:54:23.996Z,7.12
2019-03-21T02:56:25.090Z,7.08
2019-03-21T02:58:25.052Z,7.07
2019-03-21T02:59:24.009Z,7.09
2019-03-21T03:00:23.896Z,7.08
2019-03-21T03:01:23.991Z,6.96
2019-03-21T03:02:23.889Z,7.01
2019-03-21T03:03:23.912Z,7.07
2019-03-21T03:04:23.879Z,7.05
2019-03-21T03:05:23.931Z,7.05
2019-03-21T03:06:23.881Z,7.05
2019-03-21T03:07:23.936Z,7.00
2019-03-21T03:08:23.812Z,6.93
2019-03-21T03:09:23.829Z,7.01
2019-03-21T03:10:23.783Z,7.00
2019-03-21T03:11:23.863Z,6.91
2019-03-21T03:12:23.770Z,7.09
2019-03-21T03:14:24.895Z,7.08
2019-03-21T03:15:23.803Z,7.01
2019-03-21T03:16:23.734Z,7.09
2019-03-21T03:17:23.802Z,7.09
2019-03-21T03:18:23.705Z,7.07
2019-03-21T03:19:23.748Z,7.05
2019-03-21T03:20:23.671Z,7.04
2019-03-21T03:21:23.739Z,7.09
2019-03-21T03:22:23.665Z,7.09
2019-03-21T03:23:23.801Z,7.15
2019-03-21T03:24:23.672Z,7.12
2019-03-21T03:25:23.673Z,7.09
2019-03-21T03:26:23.622Z,7.18
2019-03-21T03:27:23.666Z,7.12
2019-03-21T03:28:23.586Z,7.23
2019-03-21T03:29:23.680Z,7.14
2019-03-21T03:30:23.591Z,7.19
2019-03-21T03:31:23.572Z,7.15
2019-03-21T03:32:23.593Z,7.18
2019-03-21T03:33:23.607Z,7.19
2019-03-21T03:34:23.538Z,7.14
2019-03-21T03:35:23.650Z,7.19
2019-03-21T03:36:23.512Z,7.14
2019-03-21T03:37:23.530Z,7.12
2019-03-21T03:38:23.487Z,7.12
2019-03-21T03:39:23.546Z,7.07
2019-03-21T03:40:23.481Z,7.08
2019-03-21T03:41:23.560Z,7.11
2019-03-21T03:42:23.473Z,7.09
2019-03-21T03:43:23.472Z,7.12
2019-03-21T03:44:23.420Z,7.08
2019-03-21T03:45:36.641Z,7.09
2019-03-21T03:46:24.431Z,7.12
2019-03-21T03:47:23.397Z,7.14
2019-03-21T03:48:23.373Z,7.08
2019-03-21T03:49:23.415Z,7.18
2019-03-21T03:50:23.382Z,7.09
2019-03-21T03:51:23.428Z,7.07
2019-03-21T03:52:23.324Z,7.12
2019-03-21T03:53:23.352Z,7.07
2019-03-21T03:54:23.301Z,7.05
2019-03-21T03:55:23.362Z,7.07
2019-03-21T03:56:23.315Z,7.14
2019-03-21T03:57:23.308Z,7.12
2019-03-21T03:58:23.269Z,7.15
2019-03-21T03:59:23.280Z,7.14
2019-03-21T04:00:23.243Z,7.07
2019-03-21T04:01:23.336Z,7.14
2019-03-21T04:02:23.222Z,7.11
2019-03-21T04:03:23.308Z,7.12
2019-03-21T04:04:23.201Z,7.11
2019-03-21T04:05:23.216Z,7.14
2019-03-21T04:06:23.190Z,7.09
2019-03-21T04:07:23.232Z,7.12
2019-03-21T04:08:23.149Z,7.08
2019-03-21T04:09:23.254Z,7.09
2019-03-21T04:10:23.182Z,7.09
2019-03-21T04:11:24.205Z,7.11
2019-03-21T04:12:23.096Z,7.12
2019-03-21T04:14:24.198Z,7.08
2019-03-21T04:15:23.183Z,7.12
2019-03-21T04:16:23.090Z,7.11
2019-03-21T04:17:23.138Z,7.12
2019-03-21T04:18:23.053Z,7.14
2019-03-21T04:19:23.109Z,7.16
2019-03-21T04:20:23.006Z,7.15
2019-03-21T04:21:23.199Z,7.05
2019-03-21T04:22:22.995Z,7.15
2019-03-21T04:23:23.045Z,7.16
2019-03-21T04:24:22.962Z,7.15
2019-03-21T04:25:23.067Z,7.07
2019-03-21T04:26:22.987Z,7.14
2019-03-21T04:27:22.967Z,7.08
2019-03-21T04:28:22.939Z,7.11
2019-03-21T04:29:22.991Z,7.14
2019-03-21T04:30:22.900Z,7.07
2019-03-21T04:31:22.999Z,7.11
2019-03-21T04:32:22.915Z,7.11
2019-03-21T04:33:23.198Z,7.04
2019-03-21T04:34:22.860Z,7.05
2019-03-21T04:35:22.913Z,7.08
2019-03-21T04:36:22.849Z,7.05
2019-03-21T04:37:23.069Z,7.12
2019-03-21T04:38:22.830Z,7.08
2019-03-21T04:39:22.839Z,7.01
2019-03-21T04:40:22.810Z,7.01
2019-03-21T04:42:44.771Z,6.96
2019-03-21T04:43:22.757Z,6.97
2019-03-21T04:44:22.869Z,6.99
2019-03-21T04:45:22.739Z,6.97
2019-03-21T04:46:22.797Z,7.01
2019-03-21T04:47:22.747Z,6.96
2019-03-21T04:48:22.820Z,6.99
2019-03-21T04:49:22.711Z,7.09
2019-03-21T04:50:22.709Z,7.08
2019-03-21T04:51:22.663Z,7.09
2019-03-21T04:52:22.719Z,7.07
2019-03-21T04:53:22.682Z,7.05
2019-03-21T04:54:22.650Z,7.09
2019-03-21T04:55:22.650Z,7.18
2019-03-21T04:56:22.626Z,7.05
2019-03-21T04:57:22.637Z,7.12
2019-03-21T04:58:22.690Z,7.04
2019-03-21T04:59:22.591Z,7.08
2019-03-21T05:00:22.684Z,7.08
2019-03-21T05:01:22.564Z,7.04
2019-03-21T05:02:22.601Z,7.12
2019-03-21T05:03:22.562Z,7.04
2019-03-21T05:04:22.602Z,7.09
2019-03-21T05:05:22.513Z,7.04
2019-03-21T05:06:22.508Z,7.00
2019-03-21T05:07:22.493Z,7.05
2019-03-21T05:08:22.563Z,7.05
2019-03-21T05:09:22.483Z,7.00
2019-03-21T05:10:22.471Z,6.99
2019-03-21T05:11:22.451Z,7.09
2019-03-21T05:12:22.590Z,6.96
2019-03-21T05:13:22.465Z,6.97
2019-03-21T05:14:22.465Z,7.00
2019-03-21T05:15:22.410Z,6.94
2019-03-21T05:16:22.475Z,6.99
2019-03-21T05:17:22.391Z,7.07
2019-03-21T05:18:22.531Z,7.08
2019-03-21T05:19:22.376Z,7.05
2019-03-21T05:20:22.422Z,7.16
2019-03-21T05:21:22.353Z,7.11
2019-03-21T05:22:22.419Z,7.09
2019-03-21T05:23:22.352Z,7.07
2019-03-21T05:24:22.436Z,7.12
2019-03-21T05:25:22.293Z,7.09
2019-03-21T05:26:22.361Z,7.11
2019-03-21T05:27:22.292Z,7.11
2019-03-21T05:28:22.389Z,7.11
2019-03-21T05:29:22.271Z,7.09
2019-03-21T05:30:22.275Z,7.05
2019-03-21T05:31:22.648Z,7.11
2019-03-21T05:32:22.287Z,7.07
2019-03-21T05:33:22.232Z,7.11
2019-03-21T05:34:22.360Z,7.11
2019-03-21T05:35:22.185Z,7.05
2019-03-21T05:36:22.221Z,7.15
2019-03-21T05:37:22.182Z,7.15
2019-03-21T05:38:22.421Z,7.15
2019-03-21T05:39:22.216Z,7.19
2019-03-21T05:40:22.245Z,7.16
2019-03-21T05:41:22.644Z,7.14
2019-03-21T05:42:22.158Z,7.16
2019-03-21T05:43:22.101Z,7.14
2019-03-21T05:44:22.195Z,7.12
2019-03-21T05:45:22.080Z,7.18
2019-03-21T05:46:26.933Z,7.16
2019-03-21T05:47:23.047Z,7.19
2019-03-21T05:48:22.087Z,7.14
2019-03-21T05:49:22.063Z,7.18
2019-03-21T05:50:22.103Z,7.15
2019-03-21T05:51:22.024Z,7.11
2019-03-21T05:52:22.139Z,7.14
2019-03-21T05:53:22.004Z,7.15
2019-03-21T05:54:22.272Z,7.11
2019-03-21T05:55:21.998Z,7.12
2019-03-21T05:56:22.450Z,7.21
2019-03-21T05:57:21.967Z,7.09
2019-03-21T05:59:23.071Z,7.11
2019-03-21T06:01:23.049Z,7.14
2019-03-21T06:02:23.929Z,7.15
2019-03-21T06:03:21.880Z,7.04
2019-03-21T06:04:22.846Z,7.04
2019-03-21T06:05:21.862Z,6.97
2019-03-21T06:07:22.956Z,6.93
2019-03-21T06:09:23.055Z,6.82
2019-03-21T06:10:23.096Z,6.81
2019-03-21T06:11:21.787Z,6.79
2019-03-21T06:13:22.929Z,6.73
2019-03-21T06:15:22.897Z,6.64
2019-03-21T06:16:23.725Z,6.57
2019-03-21T06:17:21.729Z,6.61
2019-03-21T06:18:23.937Z,6.63
2019-03-21T06:19:21.695Z,6.55
2019-03-21T06:20:24.089Z,6.60
2019-03-21T06:21:21.674Z,6.54
2019-03-21T06:22:24.068Z,6.54
2019-03-21T06:23:21.646Z,6.54
2019-03-21T06:24:24.183Z,6.54
2019-03-21T06:25:21.668Z,6.50
2019-03-21T06:26:24.346Z,6.55
2019-03-21T06:27:21.608Z,6.60
2019-03-21T06:28:24.533Z,6.57
2019-03-21T06:29:21.588Z,6.51
2019-03-21T06:30:25.075Z,6.57
2019-03-21T06:31:21.587Z,6.54
2019-03-21T06:33:22.670Z,6.64
2019-03-21T06:35:22.709Z,6.57
2019-03-21T06:37:22.640Z,6.65
2019-03-21T06:38:25.095Z,6.58
2019-03-21T06:39:21.467Z,6.61
2019-03-21T06:40:25.355Z,6.60
2019-03-21T06:41:21.468Z,6.57
2019-03-21T06:43:21.452Z,6.71
2019-03-21T06:44:25.247Z,6.72
2019-03-21T06:45:21.404Z,6.72
2019-03-21T06:46:23.456Z,6.72
2019-03-21T06:47:21.388Z,6.72
2019-03-21T06:48:23.533Z,6.76
2019-03-21T06:49:21.377Z,6.75
2019-03-21T06:50:21.398Z,6.82
2019-03-21T06:51:21.385Z,6.81
2019-03-21T06:52:21.406Z,6.89
2019-03-21T06:53:21.317Z,6.94
2019-03-21T06:54:21.416Z,6.93
2019-03-21T06:55:21.292Z,6.93
2019-03-21T06:56:21.367Z,6.97
2019-03-21T06:57:21.278Z,6.96
2019-03-21T06:58:21.346Z,6.99
2019-03-21T06:59:21.246Z,7.00
2019-03-21T07:00:21.374Z,7.01
2019-03-21T07:01:21.258Z,7.08
2019-03-21T07:02:21.308Z,7.14
2019-03-21T07:03:21.206Z,7.14
2019-03-21T07:04:21.297Z,7.12
2019-03-21T07:05:21.181Z,7.21
2019-03-21T07:06:21.224Z,7.21
2019-03-21T07:07:21.184Z,7.23
2019-03-21T07:08:21.211Z,7.33
2019-03-21T07:09:21.142Z,7.42
2019-03-21T07:10:21.225Z,7.41
2019-03-21T07:11:21.120Z,7.50
2019-03-21T07:12:21.181Z,7.47
2019-03-21T07:13:21.100Z,7.52
2019-03-21T07:14:21.153Z,7.60
2019-03-21T07:15:21.072Z,7.71
2019-03-21T07:16:21.171Z,7.63
2019-03-21T07:17:23.005Z,7.74
2019-03-21T07:18:21.105Z,7.77
2019-03-21T07:19:21.048Z,7.88
2019-03-21T07:20:21.108Z,7.92
2019-03-21T07:21:21.017Z,8.02
2019-03-21T07:22:21.164Z,8.04
2019-03-21T07:23:20.985Z,8.09
2019-03-21T07:24:21.012Z,8.07
2019-03-21T07:25:20.972Z,8.14
2019-03-21T07:26:21.052Z,8.17
2019-03-21T07:27:20.969Z,8.32
2019-03-21T07:28:21.042Z,8.39
2019-03-21T07:29:20.931Z,8.43
2019-03-21T07:30:20.955Z,8.36
2019-03-21T07:31:20.903Z,8.47
2019-03-21T07:32:21.002Z,8.54
2019-03-21T07:33:20.895Z,8.47
2019-03-21T07:34:20.990Z,8.57
2019-03-21T07:35:20.856Z,8.60
2019-03-21T07:36:20.894Z,8.64
2019-03-21T07:37:20.865Z,8.57
2019-03-21T07:38:20.840Z,8.65
2019-03-21T07:39:20.815Z,8.76
2019-03-21T07:40:20.812Z,8.73
2019-03-21T07:41:20.826Z,8.82
2019-03-21T07:42:20.835Z,8.88
2019-03-21T07:43:22.308Z,8.91
2019-03-21T07:44:20.845Z,8.98
2019-03-21T07:45:20.745Z,8.94
2019-03-21T07:46:20.760Z,9.04
2019-03-21T07:47:20.730Z,9.10
2019-03-21T07:48:20.810Z,9.10
2019-03-21T07:49:20.726Z,9.19
2019-03-21T07:50:20.788Z,9.19
2019-03-21T07:51:20.682Z,9.17
2019-03-21T07:52:20.735Z,9.26
2019-03-21T07:53:22.151Z,9.27
2019-03-21T07:54:20.748Z,9.24
2019-03-21T07:55:20.632Z,9.23
2019-03-21T07:56:20.735Z,9.38
2019-03-21T07:57:20.608Z,9.44
2019-03-21T07:58:20.668Z,9.37
2019-03-21T07:59:20.592Z,9.42
2019-03-21T08:00:20.693Z,9.50
2019-03-21T08:01:20.606Z,9.50
2019-03-21T08:02:20.693Z,9.58
2019-03-21T08:03:20.639Z,9.56
2019-03-21T08:04:20.542Z,9.60
2019-03-21T08:05:20.520Z,9.59
2019-03-21T08:06:20.594Z,9.55
2019-03-21T08:07:20.500Z,9.63
2019-03-21T08:08:20.606Z,9.68
2019-03-21T08:09:20.526Z,9.74
2019-03-21T08:10:20.530Z,9.85
2019-03-21T08:11:20.452Z,9.96
2019-03-21T08:12:20.537Z,9.91
2019-03-21T08:13:20.434Z,9.95
2019-03-21T08:14:20.585Z,10.01
2019-03-21T08:15:20.437Z,10.10
2019-03-21T08:16:20.467Z,10.02
2019-03-21T08:17:20.389Z,10.14
2019-03-21T08:18:20.515Z,10.26
2019-03-21T08:19:20.406Z,10.17
2019-03-21T08:20:20.380Z,10.34
2019-03-21T08:21:20.353Z,10.26
2019-03-21T08:22:20.399Z,10.38
2019-03-21T08:23:20.325Z,10.38
2019-03-21T08:24:20.410Z,10.44
2019-03-21T08:25:20.462Z,10.52
2019-03-21T08:26:20.322Z,10.55
2019-03-21T08:27:20.350Z,10.65
2019-03-21T08:28:20.337Z,10.68
2019-03-21T08:29:20.269Z,10.73
2019-03-21T08:30:20.382Z,10.75
2019-03-21T08:31:20.243Z,10.78
2019-03-21T08:32:20.267Z,10.81
2019-03-21T08:33:20.220Z,10.93
2019-03-21T08:34:20.268Z,11.01
2019-03-21T08:35:20.218Z,11.03
2019-03-21T08:36:20.287Z,10.99
2019-03-21T08:37:20.177Z,11.03
2019-03-21T08:38:20.206Z,11.09
2019-03-21T08:39:20.160Z,11.21
2019-03-21T08:40:20.251Z,11.23
2019-03-21T08:41:20.123Z,11.28
2019-03-21T08:42:20.241Z,11.27
2019-03-21T08:43:20.153Z,11.35
2019-03-21T08:44:20.179Z,11.46
2019-03-21T08:45:20.145Z,11.62
2019-03-21T08:46:20.148Z,11.54
2019-03-21T08:47:20.064Z,11.72
2019-03-21T08:48:20.167Z,11.72
2019-03-21T08:49:20.038Z,11.77
2019-03-21T08:50:20.114Z,11.78
2019-03-21T08:51:20.010Z,11.87
2019-03-21T08:52:20.096Z,11.87
2019-03-21T08:53:19.992Z,11.90
2019-03-21T08:54:20.013Z,12.00
2019-03-21T08:55:20.003Z,11.98
2019-03-21T08:56:20.160Z,11.88
2019-03-21T08:57:19.956Z,11.97
2019-03-21T08:58:20.031Z,12.07
2019-03-21T08:59:19.927Z,12.08
2019-03-21T09:00:19.981Z,12.04
2019-03-21T09:01:19.907Z,12.15
2019-03-21T09:02:19.972Z,12.26
2019-03-21T09:03:19.892Z,12.26
2019-03-21T09:04:19.971Z,12.34
2019-03-21T09:05:19.921Z,12.46
2019-03-21T09:06:19.940Z,12.58
2019-03-21T09:07:19.845Z,12.61
2019-03-21T09:08:19.892Z,12.62
2019-03-21T09:09:19.819Z,12.69
2019-03-21T09:10:19.932Z,12.69
2019-03-21T09:11:19.834Z,12.71
2019-03-21T09:12:19.820Z,12.70
2019-03-21T09:13:19.770Z,12.91
2019-03-21T09:14:19.846Z,12.92
2019-03-21T09:15:19.769Z,12.85
2019-03-21T09:16:19.783Z,12.94
2019-03-21T09:17:19.721Z,12.94
2019-03-21T09:18:19.757Z,12.91
2019-03-21T09:19:19.707Z,12.95
2019-03-21T09:20:19.797Z,13.04
2019-03-21T09:21:20.196Z,13.06
2019-03-21T09:22:19.787Z,13.14
2019-03-21T09:23:19.665Z,13.19
2019-03-21T09:24:19.701Z,13.32
2019-03-21T09:25:19.632Z,13.27
2019-03-21T09:26:19.744Z,13.43
2019-03-21T09:27:19.623Z,13.28
2019-03-21T09:28:19.727Z,13.31
2019-03-21T09:29:19.593Z,13.35
2019-03-21T09:30:19.659Z,13.47
2019-03-21T09:31:19.569Z,13.44
2019-03-21T09:32:19.769Z,13.48
2019-03-21T09:33:19.550Z,13.61
2019-03-21T09:34:19.576Z,13.68
2019-03-21T09:35:19.545Z,13.59
2019-03-21T09:36:19.611Z,13.57
2019-03-21T09:37:19.521Z,13.66
2019-03-21T09:38:19.624Z,13.61
2019-03-21T09:39:19.489Z,13.66
2019-03-21T09:40:19.504Z,13.72
2019-03-21T09:41:19.510Z,13.72
2019-03-21T09:42:19.532Z,13.69
2019-03-21T09:43:19.450Z,13.73
2019-03-21T09:44:19.562Z,13.73
2019-03-21T09:45:19.428Z,13.84
2019-03-21T09:46:19.462Z,13.81
2019-03-21T09:47:19.459Z,13.81
2019-03-21T09:48:19.457Z,13.94
2019-03-21T09:49:19.381Z,14.01
2019-03-21T09:50:19.481Z,14.04
2019-03-21T09:51:30.299Z,13.99
2019-03-21T09:52:20.381Z,14.11
2019-03-21T09:53:19.391Z,14.21
2019-03-21T09:54:19.329Z,14.21
2019-03-21T09:55:19.422Z,14.26
2019-03-21T09:56:19.298Z,14.20
2019-03-21T09:57:19.340Z,14.16
2019-03-21T09:58:19.266Z,14.24
2019-03-21T09:59:19.330Z,14.26
2019-03-21T10:00:19.249Z,14.41
2019-03-21T10:01:19.343Z,14.39
2019-03-21T10:02:19.279Z,14.41
2019-03-21T10:03:19.261Z,14.45
2019-03-21T10:04:19.210Z,14.48
2019-03-21T10:05:19.283Z,14.53
2019-03-21T10:06:19.181Z,14.60
2019-03-21T10:07:19.319Z,14.63
2019-03-21T10:08:19.184Z,14.48
2019-03-21T10:09:19.195Z,14.69
2019-03-21T10:10:19.139Z,14.66
2019-03-21T10:11:19.221Z,14.72
2019-03-21T10:12:19.162Z,14.71
2019-03-21T10:13:19.231Z,14.74
2019-03-21T10:14:19.130Z,14.79
2019-03-21T10:15:19.133Z,14.94
2019-03-21T10:16:19.144Z,14.94
2019-03-21T10:17:19.191Z,15.01
2019-03-21T10:18:19.082Z,14.95
2019-03-21T10:19:19.220Z,15.03
2019-03-21T10:20:19.033Z,15.11
2019-03-21T10:21:19.084Z,15.07
2019-03-21T10:22:19.050Z,15.03
2019-03-21T10:23:19.117Z,15.15
2019-03-21T10:24:18.997Z,15.15
2019-03-21T10:25:19.020Z,15.13
2019-03-21T10:26:19.012Z,15.16
2019-03-21T10:27:19.015Z,15.23
2019-03-21T10:28:18.974Z,15.33
2019-03-21T10:29:19.057Z,15.28
2019-03-21T10:30:18.921Z,15.35
2019-03-21T10:31:18.934Z,15.44
2019-03-21T10:32:18.896Z,15.44
2019-03-21T10:33:18.963Z,15.53
2019-03-21T10:34:18.959Z,15.51
2019-03-21T10:35:18.965Z,15.41
2019-03-21T10:36:18.855Z,15.41
2019-03-21T10:37:18.881Z,15.44
2019-03-21T10:38:18.823Z,15.44
2019-03-21T10:39:20.047Z,15.44
2019-03-21T10:40:18.811Z,15.43
2019-03-21T10:41:18.912Z,15.43
2019-03-21T10:42:18.791Z,15.52
2019-03-21T10:43:18.820Z,15.52
2019-03-21T10:44:18.761Z,15.60
2019-03-21T10:45:18.880Z,15.66
2019-03-21T10:46:18.742Z,15.70
2019-03-21T10:47:18.868Z,15.62
2019-03-21T10:48:18.720Z,15.76
2019-03-21T10:49:18.795Z,15.78
2019-03-21T10:50:18.723Z,15.73
2019-03-21T10:52:19.794Z,15.77
2019-03-21T10:53:18.795Z,15.74
2019-03-21T10:54:18.650Z,15.73
2019-03-21T10:55:18.727Z,15.85
2019-03-21T10:56:18.627Z,15.95
2019-03-21T10:58:19.729Z,16.14
2019-03-21T10:59:18.639Z,16.13
2019-03-21T11:00:18.622Z,16.17
2019-03-21T11:01:18.652Z,16.13
2019-03-21T11:02:18.558Z,16.17
2019-03-21T11:03:18.667Z,16.17
2019-03-21T11:04:18.547Z,16.14
2019-03-21T11:05:18.611Z,16.04
2019-03-21T11:06:18.519Z,16.06
2019-03-21T11:07:18.574Z,16.13
2019-03-21T11:08:18.503Z,16.16
2019-03-21T11:09:18.606Z,16.23
2019-03-21T11:10:18.500Z,16.22
2019-03-21T11:11:18.499Z,16.16
2019-03-21T11:12:18.453Z,16.16
2019-03-21T11:13:18.518Z,16.29
2019-03-21T11:14:18.438Z,16.32
2019-03-21T11:15:18.575Z,16.33
2019-03-21T11:16:18.433Z,16.30
2019-03-21T11:17:18.462Z,16.50
2019-03-21T11:18:18.416Z,16.48
2019-03-21T11:19:18.487Z,16.59
2019-03-21T11:20:18.406Z,16.55
2019-03-21T11:21:18.502Z,16.65
2019-03-21T11:22:18.363Z,16.67
2019-03-21T11:23:18.364Z,16.78
2019-03-21T11:24:18.322Z,16.77
2019-03-21T11:25:18.389Z,16.78
2019-03-21T11:26:18.323Z,16.75
2019-03-21T11:27:18.423Z,16.77
2019-03-21T11:28:18.285Z,16.80
2019-03-21T11:29:18.328Z,16.96
2019-03-21T11:30:18.269Z,16.98
2019-03-21T11:31:18.381Z,16.90
2019-03-21T11:32:18.246Z,16.73
2019-03-21T11:33:18.254Z,16.85
2019-03-21T11:34:18.208Z,16.88
2019-03-21T11:35:18.265Z,16.80
2019-03-21T11:36:18.266Z,16.81
2019-03-21T11:37:18.320Z,16.77
2019-03-21T11:38:18.162Z,16.96
2019-03-21T11:39:18.285Z,16.99
2019-03-21T11:40:18.149Z,17.09
2019-03-21T11:41:18.199Z,17.03
2019-03-21T11:42:18.160Z,17.03
2019-03-21T11:43:18.218Z,17.15
2019-03-21T11:44:18.137Z,17.17
2019-03-21T11:45:18.134Z,17.27
2019-03-21T11:46:18.154Z,17.28
2019-03-21T11:47:18.133Z,17.27
2019-03-21T11:48:18.106Z,17.25
2019-03-21T11:49:18.174Z,17.32
2019-03-21T11:50:18.063Z,17.30
2019-03-21T11:51:18.094Z,17.33
2019-03-21T11:52:18.686Z,17.25
2019-03-21T11:53:18.085Z,17.42
2019-03-21T11:54:18.038Z,17.35
2019-03-21T11:55:18.090Z,17.45
2019-03-21T11:56:17.983Z,17.47
2019-03-21T11:57:18.098Z,17.51
2019-03-21T11:58:18.006Z,17.66
2019-03-21T11:59:18.047Z,17.71
2019-03-21T12:00:17.928Z,17.65
2019-03-21T12:01:18.038Z,17.55
2019-03-21T12:02:26.766Z,17.60
2019-03-21T12:03:18.896Z,17.60
2019-03-21T12:04:17.995Z,17.71
2019-03-21T12:05:17.880Z,17.77
2019-03-21T12:06:17.957Z,17.79
2019-03-21T12:07:17.869Z,17.76
2019-03-21T12:08:17.911Z,17.71
2019-03-21T12:09:17.815Z,17.70
2019-03-21T12:10:17.883Z,17.73
2019-03-21T12:11:17.796Z,17.79
2019-03-21T12:12:17.910Z,17.89
2019-03-21T12:13:17.838Z,17.87
2019-03-21T12:14:17.818Z,17.81
2019-03-21T12:15:17.775Z,17.86
2019-03-21T12:16:17.827Z,17.89
2019-03-21T12:17:17.728Z,17.91
2019-03-21T12:18:17.878Z,17.84
2019-03-21T12:19:17.742Z,17.91
2019-03-21T12:20:17.772Z,17.86
2019-03-21T12:21:17.686Z,17.74
2019-03-21T12:22:29.217Z,17.86
2019-03-21T12:23:18.692Z,17.86
2019-03-21T12:24:17.781Z,17.91
2019-03-21T12:25:17.644Z,17.84
2019-03-21T12:26:17.695Z,17.92
2019-03-21T12:27:17.656Z,18.02
2019-03-21T12:28:17.745Z,18.14
2019-03-21T12:29:17.617Z,18.25
2019-03-21T12:30:17.634Z,18.26
2019-03-21T12:31:17.587Z,18.16
2019-03-21T12:32:17.646Z,18.25
2019-03-21T12:33:17.596Z,18.17
2019-03-21T12:34:17.649Z,18.05
2019-03-21T12:35:17.606Z,18.13
2019-03-21T12:36:17.581Z,18.21
2019-03-21T12:37:17.531Z,18.25
2019-03-21T12:38:17.579Z,18.16
2019-03-21T12:39:17.518Z,18.25
2019-03-21T12:40:17.588Z,18.10
2019-03-21T12:41:17.499Z,18.23
2019-03-21T12:42:17.494Z,18.16
2019-03-21T12:43:17.522Z,18.16
2019-03-21T12:44:17.545Z,18.13
2019-03-21T12:45:17.433Z,18.09
2019-03-21T12:46:17.527Z,18.14
2019-03-21T12:47:17.422Z,18.31
2019-03-21T12:48:17.440Z,18.56
2019-03-21T12:49:17.438Z,18.44
2019-03-21T12:50:17.548Z,18.41
2019-03-21T12:51:17.365Z,18.41
2019-03-21T12:52:17.470Z,18.38
2019-03-21T12:53:17.340Z,18.42
2019-03-21T12:54:17.406Z,18.49
2019-03-21T12:55:17.327Z,18.46
2019-03-21T12:56:17.403Z,18.57
2019-03-21T12:57:17.331Z,18.66
2019-03-21T12:58:17.406Z,18.76
2019-03-21T12:59:17.323Z,18.74
2019-03-21T13:00:17.354Z,18.72
2019-03-21T13:01:17.307Z,18.76
2019-03-21T13:02:17.333Z,18.74
2019-03-21T13:03:17.257Z,18.82
2019-03-21T13:04:17.367Z,18.78
2019-03-21T13:05:17.210Z,18.72
2019-03-21T13:06:17.261Z,18.83
2019-03-21T13:07:17.464Z,18.84
2019-03-21T13:08:17.287Z,18.82
2019-03-21T13:09:17.190Z,18.72
2019-03-21T13:10:17.289Z,18.83
2019-03-21T13:11:17.149Z,18.83
2019-03-21T13:12:17.197Z,18.90
2019-03-21T13:13:17.128Z,18.82
2019-03-21T13:14:17.265Z,18.89
2019-03-21T13:15:17.112Z,18.91
2019-03-21T13:16:17.123Z,19.06
2019-03-21T13:17:17.087Z,18.91
2019-03-21T13:18:17.165Z,18.91
2019-03-21T13:19:17.098Z,18.90
2019-03-21T13:20:17.203Z,18.91
2019-03-21T13:21:17.032Z,18.83
2019-03-21T13:22:17.066Z,18.78
2019-03-21T13:23:17.014Z,18.78
2019-03-21T13:24:19.491Z,18.82
2019-03-21T13:25:17.029Z,18.94
2019-03-21T13:26:17.092Z,18.96
2019-03-21T13:27:16.964Z,19.13
2019-03-21T13:28:17.002Z,19.20